createdAt,value
2018-04-10T00:01:52.994Z,79.01
2018-04-10T00:04:20.604Z,79.03
2018-04-10T00:06:48.188Z,79.14
2018-04-10T00:09:15.772Z,79.40
2018-04-10T00:11:43.352Z,79.43
2018-04-10T00:14:10.957Z,79.69
2018-04-10T00:16:38.537Z,79.65
2018-04-10T00:19:06.148Z,79.61
2018-04-10T00:21:33.742Z,80.00
2018-04-10T00:24:01.360Z,79.79
2018-04-10T00:26:28.990Z,79.84
2018-04-10T00:28:56.606Z,79.96
2018-04-10T00:31:24.237Z,80.12
2018-04-10T00:33:51.820Z,79.99
2018-04-10T00:36:19.414Z,80.16
2018-04-10T00:38:47.084Z,80.07
2018-04-10T00:41:14.667Z,80.01
2018-04-10T00:43:42.252Z,80.46
2018-04-10T00:46:09.905Z,80.49
2018-04-10T00:48:37.525Z,80.21
2018-04-10T00:51:05.143Z,80.29
2018-04-10T00:53:37.622Z,80.19
2018-04-10T00:56:05.238Z,80.41
2018-04-10T00:58:32.822Z,80.55
2018-04-10T01:01:00.438Z,80.65
2018-04-10T01:03:28.026Z,80.61
2018-04-10T01:05:55.669Z,80.73
2018-04-10T01:08:23.253Z,80.43
2018-04-10T01:10:50.944Z,80.30
2018-04-10T01:13:18.528Z,80.69
2018-04-10T01:15:46.181Z,80.61
2018-04-10T01:18:13.793Z,80.66
2018-04-10T01:20:41.385Z,80.52
2018-04-10T01:23:08.996Z,80.42
2018-04-10T01:25:36.606Z,80.30
2018-04-10T01:28:04.229Z,80.25
2018-04-10T01:30:31.813Z,79.97
2018-04-10T01:32:59.398Z,80.21
2018-04-10T01:35:26.980Z,80.17
2018-04-10T01:37:54.572Z,80.41
2018-04-10T01:40:22.281Z,80.72
2018-04-10T01:42:49.870Z,80.33
2018-04-10T01:45:17.470Z,80.56
2018-04-10T01:47:45.081Z,80.32
2018-04-10T01:50:12.692Z,80.28
2018-04-10T01:52:40.273Z,80.74
2018-04-10T01:55:07.893Z,80.64
2018-04-10T01:57:35.479Z,80.14
2018-04-10T02:00:03.176Z,80.25
2018-04-10T02:02:30.770Z,80.49
2018-04-10T02:04:58.469Z,80.47
2018-04-10T02:07:26.065Z,80.25
2018-04-10T02:09:53.648Z,80.04
2018-04-10T02:12:21.238Z,80.82
2018-04-10T02:14:48.820Z,80.38
2018-04-10T02:17:16.404Z,80.38
2018-04-10T02:19:44.024Z,79.96
2018-04-10T02:22:11.603Z,79.90
2018-04-10T02:24:39.188Z,80.20
2018-04-10T02:27:06.771Z,80.25
2018-04-10T02:29:34.386Z,80.31
2018-04-10T02:32:01.968Z,80.51
2018-04-10T02:34:29.541Z,81.02
2018-04-10T02:36:57.124Z,81.38
2018-04-10T02:39:24.725Z,81.14
2018-04-10T02:41:52.331Z,81.05
2018-04-10T02:44:19.950Z,80.69
2018-04-10T02:46:47.561Z,80.89
2018-04-10T02:49:15.214Z,81.21
2018-04-10T02:51:42.793Z,80.84
2018-04-10T02:54:10.374Z,81.58
2018-04-10T02:56:38.057Z,82.68
2018-04-10T02:59:05.678Z,81.93
2018-04-10T03:01:33.265Z,81.77
2018-04-10T03:04:00.842Z,81.91
2018-04-10T03:06:28.421Z,82.43
2018-04-10T03:08:56.839Z,82.53
2018-04-10T03:11:24.408Z,82.41
2018-04-10T03:13:51.993Z,82.77
2018-04-10T03:16:19.568Z,83.05
2018-04-10T03:18:47.150Z,83.73
2018-04-10T03:21:14.725Z,83.41
2018-04-10T03:23:42.302Z,83.64
2018-04-10T03:26:09.912Z,84.18
2018-04-10T03:28:37.501Z,83.98
2018-04-10T03:31:05.083Z,84.03
2018-04-10T03:33:32.661Z,83.60
2018-04-10T03:36:00.276Z,84.12
2018-04-10T03:38:27.852Z,84.26
2018-04-10T03:40:56.049Z,84.33
2018-04-10T03:43:23.698Z,84.72
2018-04-10T03:45:51.289Z,84.81
2018-04-10T03:48:18.897Z,84.94
2018-04-10T03:50:46.469Z,85.33
2018-04-10T03:53:14.071Z,85.43
2018-04-10T03:55:41.665Z,85.14
2018-04-10T03:58:09.288Z,84.88
2018-04-10T04:00:36.870Z,85.07
2018-04-10T04:03:04.558Z,85.32
2018-04-10T04:05:32.250Z,85.49
2018-04-10T04:07:59.828Z,85.54
2018-04-10T04:10:27.436Z,85.10
2018-04-10T04:12:55.018Z,85.44
2018-04-10T04:15:22.889Z,85.90
2018-04-10T04:17:50.475Z,86.14
2018-04-10T04:20:30.122Z,86.14
2018-04-10T04:22:57.693Z,86.22
2018-04-10T04:25:26.224Z,85.94
2018-04-10T04:27:54.032Z,85.76
2018-04-10T04:30:21.603Z,85.86
2018-04-10T04:32:49.213Z,86.08
2018-04-10T04:35:16.914Z,86.61
2018-04-10T04:37:44.485Z,86.50
2018-04-10T04:40:12.093Z,86.20
2018-04-10T04:42:39.674Z,86.19
2018-04-10T04:45:07.279Z,85.89
2018-04-10T04:47:34.857Z,86.40
2018-04-10T04:50:02.441Z,86.18
2018-04-10T04:52:32.117Z,86.02
2018-04-10T04:55:00.129Z,86.08
2018-04-10T04:57:27.732Z,85.74
2018-04-10T04:59:55.336Z,86.39
2018-04-10T05:02:22.964Z,86.19
2018-04-10T05:04:50.593Z,86.27
2018-04-10T05:07:18.223Z,85.61
2018-04-10T05:09:45.839Z,85.39
2018-04-10T05:12:13.426Z,85.80
2018-04-10T05:14:41.036Z,85.18
2018-04-10T05:17:08.624Z,85.45
2018-04-10T05:19:36.214Z,85.10
2018-04-10T05:22:03.832Z,84.62
2018-04-10T05:24:31.428Z,84.55
2018-04-10T05:26:59.044Z,84.42
2018-04-10T05:29:26.689Z,84.24
2018-04-10T05:31:54.281Z,83.91
2018-04-10T05:34:21.870Z,83.65
2018-04-10T05:36:49.454Z,83.33
2018-04-10T05:39:17.036Z,83.23
2018-04-10T05:41:44.654Z,82.57
2018-04-10T05:44:12.232Z,83.09
2018-04-10T05:46:39.850Z,82.01
2018-04-10T05:49:07.527Z,81.51
2018-04-10T05:51:35.174Z,81.67
2018-04-10T05:54:02.761Z,81.07
2018-04-10T05:56:30.495Z,81.09
2018-04-10T05:58:58.178Z,81.27
2018-04-10T06:01:25.764Z,80.79
2018-04-10T06:03:53.386Z,80.28
2018-04-10T06:06:21.009Z,79.29
2018-04-10T06:08:48.626Z,79.58
2018-04-10T06:11:16.212Z,78.28
2018-04-10T06:13:43.803Z,78.30
2018-04-10T06:16:11.394Z,78.21
2018-04-10T06:18:39.012Z,77.74
2018-04-10T06:21:06.597Z,77.55
2018-04-10T06:23:34.231Z,77.00
2018-04-10T06:26:01.818Z,76.93
2018-04-10T06:28:29.433Z,75.14
2018-04-10T06:30:57.029Z,75.80
2018-04-10T06:33:24.646Z,74.80
2018-04-10T06:35:53.244Z,74.54
2018-04-10T06:38:20.856Z,73.87
2018-04-10T06:40:48.443Z,73.98
2018-04-10T06:43:16.069Z,73.69
2018-04-10T06:45:43.658Z,72.47
2018-04-10T06:48:11.271Z,72.48
2018-04-10T06:50:38.884Z,71.04
2018-04-10T06:53:06.504Z,70.77
2018-04-10T06:55:34.093Z,71.51
2018-04-10T06:58:01.682Z,70.10
2018-04-10T07:00:29.265Z,69.48
2018-04-10T07:02:56.876Z,69.23
2018-04-10T07:05:24.521Z,69.43
2018-04-10T07:07:52.182Z,68.88
2018-04-10T07:10:19.798Z,67.30
2018-04-10T07:12:47.382Z,68.10
2018-04-10T07:15:15.010Z,67.19
2018-04-10T07:17:42.665Z,66.95
2018-04-10T07:20:10.244Z,66.84
2018-04-10T07:22:37.833Z,66.60
2018-04-10T07:25:05.454Z,65.80
2018-04-10T07:27:33.049Z,65.61
2018-04-10T07:30:00.637Z,65.88
2018-04-10T07:32:28.243Z,64.27
2018-04-10T07:34:55.893Z,65.48
2018-04-10T07:37:23.509Z,65.25
2018-04-10T07:39:51.134Z,63.49
2018-04-10T07:42:18.734Z,63.17
2018-04-10T07:44:46.325Z,62.83
2018-04-10T07:47:13.911Z,62.66
2018-04-10T07:49:41.524Z,62.84
2018-04-10T07:52:09.112Z,62.19
2018-04-10T07:54:36.733Z,61.21
2018-04-10T07:57:04.345Z,60.41
2018-04-10T07:59:31.967Z,61.06
2018-04-10T08:01:59.549Z,61.21
2018-04-10T08:04:27.141Z,61.02
2018-04-10T08:06:54.733Z,61.47
2018-04-10T08:09:22.350Z,59.84
2018-04-10T08:11:49.933Z,59.67
2018-04-10T08:14:17.543Z,58.42
2018-04-10T08:16:45.161Z,58.87
2018-04-10T08:19:12.777Z,58.44
2018-04-10T08:21:40.365Z,58.42
2018-04-10T08:24:07.953Z,58.29
2018-04-10T08:26:35.530Z,57.37
2018-04-10T08:29:03.108Z,56.98
2018-04-10T08:31:30.697Z,56.95
2018-04-10T08:33:58.314Z,56.83
2018-04-10T08:36:25.901Z,56.09
2018-04-10T08:38:53.481Z,54.98
2018-04-10T08:41:21.860Z,55.57
2018-04-10T08:43:49.556Z,52.91
2018-04-10T08:46:17.144Z,53.58
2018-04-10T08:48:44.832Z,54.99
2018-04-10T08:51:12.412Z,53.54
2018-04-10T08:53:39.993Z,53.28
2018-04-10T08:56:07.581Z,53.71
2018-04-10T08:58:35.241Z,50.10
2018-04-10T09:01:02.906Z,52.95
2018-04-10T09:03:30.488Z,52.79
2018-04-10T09:05:58.129Z,51.32
2018-04-10T09:08:25.745Z,52.10
2018-04-10T09:10:53.389Z,50.54
2018-04-10T09:13:20.972Z,50.28
2018-04-10T09:15:48.575Z,50.54
2018-04-10T09:18:16.246Z,49.96
2018-04-10T09:20:43.905Z,49.77
2018-04-10T09:23:11.605Z,49.82
2018-04-10T09:25:39.195Z,50.32
2018-04-10T09:28:06.786Z,48.81
2018-04-10T09:30:34.513Z,49.60
2018-04-10T09:33:02.126Z,49.13
2018-04-10T09:35:29.714Z,49.28
2018-04-10T09:37:57.297Z,48.75
2018-04-10T09:40:24.877Z,46.93
2018-04-10T09:42:52.457Z,48.68
2018-04-10T09:45:20.130Z,46.83
2018-04-10T09:47:47.713Z,47.22
2018-04-10T09:50:15.345Z,47.17
2018-04-10T09:52:42.922Z,46.63
2018-04-10T09:55:10.507Z,46.71
2018-04-10T09:57:38.090Z,46.19
2018-04-10T10:00:05.665Z,46.29
2018-04-10T10:02:33.240Z,45.77
2018-04-10T10:05:00.818Z,44.25
2018-04-10T10:07:28.401Z,45.46
2018-04-10T10:09:55.977Z,44.78
2018-04-10T10:12:23.562Z,45.33
2018-04-10T10:14:51.171Z,43.81
2018-04-10T10:17:18.758Z,43.90
2018-04-10T10:19:46.344Z,43.29
2018-04-10T10:22:13.974Z,43.43
2018-04-10T10:24:41.556Z,45.01
2018-04-10T10:27:09.141Z,44.45
2018-04-10T10:29:36.717Z,45.40
2018-04-10T10:32:04.301Z,44.27
2018-04-10T10:34:31.888Z,43.07
2018-04-10T10:36:59.473Z,42.73
2018-04-10T10:39:27.057Z,41.85
2018-04-10T10:41:54.637Z,41.43
2018-04-10T10:44:22.213Z,41.11
2018-04-10T10:46:49.793Z,40.52
2018-04-10T10:49:17.377Z,42.53
2018-04-10T10:51:44.954Z,41.28
2018-04-10T10:54:12.650Z,40.57
2018-04-10T10:56:40.238Z,41.70
2018-04-10T10:59:07.970Z,40.74
2018-04-10T11:01:35.905Z,41.54
2018-04-10T11:04:03.485Z,40.68
2018-04-10T11:06:31.192Z,41.79
2018-04-10T11:08:58.813Z,41.85
2018-04-10T11:11:26.397Z,41.54
2018-04-10T11:13:54.085Z,40.98
2018-04-10T11:16:21.675Z,38.77
2018-04-10T11:18:49.274Z,40.88
2018-04-10T11:21:16.853Z,39.17
2018-04-10T11:23:44.433Z,38.81
2018-04-10T11:26:12.021Z,39.08
2018-04-10T11:28:39.606Z,40.76
2018-04-10T11:31:07.190Z,39.00
2018-04-10T11:33:34.761Z,39.83
2018-04-10T11:36:02.369Z,37.50
2018-04-10T11:38:29.977Z,38.03
2018-04-10T11:40:57.558Z,38.91
2018-04-10T11:43:25.138Z,38.64
2018-04-10T11:45:52.717Z,39.69
2018-04-10T11:48:20.293Z,37.97
2018-04-10T11:50:47.879Z,37.97
2018-04-10T11:53:15.457Z,36.44
2018-04-10T11:55:43.038Z,37.76
2018-04-10T11:58:10.654Z,36.57
2018-04-10T12:00:38.238Z,37.29
2018-04-10T12:03:05.812Z,36.00
2018-04-10T12:05:33.389Z,37.31
2018-04-10T12:08:01.001Z,37.15
2018-04-10T12:10:28.696Z,35.35
2018-04-10T12:12:56.324Z,36.09
2018-04-10T12:15:23.925Z,36.21
2018-04-10T12:17:51.504Z,36.87
2018-04-10T12:20:19.117Z,35.00
2018-04-10T12:22:46.769Z,37.39
2018-04-10T12:25:14.353Z,35.32
2018-04-10T12:27:41.969Z,35.75
2018-04-10T12:30:09.564Z,38.72
2018-04-10T12:32:37.176Z,35.94
2018-04-10T12:35:04.767Z,36.07
2018-04-10T12:37:32.345Z,38.00
2018-04-10T12:40:00.014Z,36.83
2018-04-10T12:42:27.601Z,37.65
2018-04-10T12:44:55.189Z,36.82
2018-04-10T12:47:22.775Z,38.90
2018-04-10T12:49:50.358Z,37.36
2018-04-10T12:52:17.978Z,37.38
2018-04-10T12:54:45.565Z,38.48
2018-04-10T12:57:13.158Z,37.84
2018-04-10T12:59:40.790Z,37.99
2018-04-10T13:02:08.447Z,37.23
2018-04-10T13:04:36.036Z,37.85
2018-04-10T13:07:03.625Z,38.86
2018-04-10T13:09:31.237Z,38.21
2018-04-10T13:11:58.852Z,38.98
2018-04-10T13:14:26.433Z,39.04
2018-04-10T13:16:54.017Z,38.48
2018-04-10T13:19:21.608Z,38.74
2018-04-10T13:21:49.245Z,39.07
2018-04-10T13:24:16.909Z,39.34
2018-04-10T13:26:44.569Z,39.36
2018-04-10T13:29:12.233Z,39.63
2018-04-10T13:31:40.361Z,39.30
2018-04-10T13:34:07.968Z,39.92
2018-04-10T13:36:35.557Z,39.69
2018-04-10T13:39:03.143Z,39.28
2018-04-10T13:41:30.725Z,38.17
2018-04-10T13:43:58.417Z,39.53
2018-04-10T13:46:26.077Z,39.08
2018-04-10T13:48:53.652Z,36.07
2018-04-10T13:51:21.232Z,34.85
2018-04-10T13:53:48.806Z,35.21
2018-04-10T13:56:16.441Z,33.75
2018-04-10T13:58:44.018Z,35.10
2018-04-10T14:01:11.609Z,34.84
2018-04-10T14:03:39.274Z,36.01
2018-04-10T14:06:07.753Z,34.95
2018-04-10T14:08:35.474Z,35.31
2018-04-10T14:11:03.136Z,35.67
2018-04-10T14:13:30.708Z,35.77
2018-04-10T14:15:58.279Z,34.65
2018-04-10T14:18:25.964Z,35.14
2018-04-10T14:20:53.629Z,34.45
2018-04-10T14:23:21.330Z,35.91
2018-04-10T14:25:48.907Z,35.44
2018-04-10T14:28:17.385Z,35.02
2018-04-10T14:30:44.962Z,35.63
2018-04-10T14:33:12.537Z,34.88
2018-04-10T14:35:40.116Z,34.75
2018-04-10T14:38:07.839Z,34.76
2018-04-10T14:40:35.415Z,35.25
2018-04-10T14:43:02.993Z,34.50
2018-04-10T14:45:30.571Z,35.16
2018-04-10T14:47:58.265Z,34.15
2018-04-10T14:50:25.836Z,34.19
2018-04-10T14:52:53.433Z,34.36
2018-04-10T14:55:21.145Z,35.21
2018-04-10T14:57:48.738Z,34.91
2018-04-10T15:00:16.370Z,34.54
2018-04-10T15:02:44.052Z,36.32
2018-04-10T15:05:11.633Z,35.43
2018-04-10T15:07:39.247Z,33.29
2018-04-10T15:10:06.825Z,34.07
2018-04-10T15:12:34.397Z,33.31
2018-04-10T15:15:01.978Z,31.93
2018-04-10T15:17:29.612Z,32.95
2018-04-10T15:19:57.334Z,32.58
2018-04-10T15:22:31.237Z,31.97
2018-04-10T15:24:59.308Z,33.23
2018-04-10T15:27:31.629Z,30.74
2018-04-10T15:30:06.167Z,31.40
2018-04-10T15:32:34.574Z,31.39
2018-04-10T15:35:02.201Z,31.60
2018-04-10T15:37:29.826Z,30.71
2018-04-10T15:39:57.480Z,30.89
2018-04-10T15:42:27.429Z,32.70
2018-04-10T15:44:55.060Z,32.15
2018-04-10T15:47:22.642Z,32.62
2018-04-10T15:49:50.221Z,31.66
2018-04-10T15:52:17.870Z,29.84
2018-04-10T15:54:45.450Z,29.99
2018-04-10T15:57:13.020Z,29.35
2018-04-10T15:59:40.637Z,30.48
2018-04-10T16:02:08.219Z,31.10
2018-04-10T16:04:35.830Z,31.29
2018-04-10T16:07:03.401Z,31.80
2018-04-10T16:09:31.001Z,31.97
2018-04-10T16:11:58.615Z,33.62
2018-04-10T16:14:26.201Z,33.07
2018-04-10T16:16:53.773Z,34.21
2018-04-10T16:19:21.394Z,34.49
2018-04-10T16:21:48.974Z,34.53
2018-04-10T16:24:16.553Z,34.99
2018-04-10T16:26:44.125Z,35.39
2018-04-10T16:29:11.797Z,36.17
2018-04-10T16:31:39.369Z,36.47
2018-04-10T16:34:06.997Z,36.24
2018-04-10T16:36:34.571Z,37.27
2018-04-10T16:39:02.153Z,36.89
2018-04-10T16:41:29.772Z,37.91
2018-04-10T16:43:57.359Z,38.45
2018-04-10T16:46:24.941Z,37.33
2018-04-10T16:48:52.636Z,38.50
2018-04-10T16:51:20.236Z,37.22
2018-04-10T16:53:47.818Z,38.32
2018-04-10T16:56:15.432Z,39.09
2018-04-10T16:58:43.017Z,38.36
2018-04-10T17:01:24.011Z,38.88
2018-04-10T17:03:51.594Z,38.92
2018-04-10T17:06:19.179Z,38.45
2018-04-10T17:08:47.731Z,38.70
2018-04-10T17:11:15.430Z,40.00
2018-04-10T17:13:43.090Z,40.31
2018-04-10T17:16:10.718Z,39.99
2018-04-10T17:18:38.301Z,40.41
2018-04-10T17:21:05.884Z,40.31
2018-04-10T17:23:33.458Z,40.06
2018-04-10T17:26:01.132Z,41.23
2018-04-10T17:28:28.746Z,40.68
2018-04-10T17:30:56.436Z,40.16
2018-04-10T17:33:24.048Z,41.85
2018-04-10T17:35:51.699Z,41.14
2018-04-10T17:38:19.365Z,41.70
2018-04-10T17:40:46.945Z,41.57
2018-04-10T17:43:14.555Z,41.53
2018-04-10T17:45:42.173Z,42.35
2018-04-10T17:48:09.822Z,42.74
2018-04-10T17:50:37.410Z,42.49
2018-04-10T17:53:05.046Z,42.96
2018-04-10T17:55:32.625Z,42.86
2018-04-10T17:58:00.276Z,43.16
2018-04-10T18:00:28.650Z,43.39
2018-04-10T18:02:56.299Z,43.62
2018-04-10T18:05:23.891Z,44.27
2018-04-10T18:07:51.475Z,43.67
2018-04-10T18:10:19.061Z,43.42
2018-04-10T18:12:46.710Z,43.29
2018-04-10T18:15:14.286Z,43.49
2018-04-10T18:17:42.090Z,43.32
2018-04-10T18:20:10.076Z,44.02
2018-04-10T18:22:37.753Z,43.21
2018-04-10T18:25:05.587Z,42.94
2018-04-10T18:27:33.352Z,43.19
2018-04-10T18:30:00.970Z,44.41
2018-04-10T18:32:28.658Z,44.49
2018-04-10T18:34:56.731Z,43.65
2018-04-10T18:37:24.854Z,43.96
2018-04-10T18:39:52.598Z,44.15
2018-04-10T18:42:20.301Z,44.94
2018-04-10T18:44:47.941Z,44.29
2018-04-10T18:47:15.538Z,44.31
2018-04-10T18:49:43.195Z,45.45
2018-04-10T18:52:10.784Z,45.61
2018-04-10T18:54:38.462Z,45.72
2018-04-10T18:57:06.111Z,45.88
2018-04-10T18:59:33.841Z,46.26
2018-04-10T19:02:01.430Z,46.63
2018-04-10T19:04:29.102Z,46.63
2018-04-10T19:06:56.879Z,46.84
2018-04-10T19:09:24.456Z,46.30
2018-04-10T19:11:52.087Z,46.59
2018-04-10T19:14:19.763Z,46.56
2018-04-10T19:16:47.347Z,47.38
2018-04-10T19:19:14.921Z,47.22
2018-04-10T19:21:42.505Z,47.38
2018-04-10T19:24:10.162Z,47.57
2018-04-10T19:26:37.977Z,47.85
2018-04-10T19:29:05.558Z,48.53
2018-04-10T19:31:33.182Z,48.58
2018-04-10T19:34:00.760Z,47.85
2018-04-10T19:36:28.425Z,49.12
2018-04-10T19:38:56.022Z,47.90
2018-04-10T19:41:23.610Z,47.99
2018-04-10T19:43:52.205Z,48.26
2018-04-10T19:46:19.798Z,48.45
2018-04-10T19:48:47.855Z,48.62
2018-04-10T19:51:15.447Z,49.13
2018-04-10T19:53:43.029Z,49.24
2018-04-10T19:56:10.614Z,49.71
2018-04-10T19:58:38.467Z,50.23
2018-04-10T20:01:06.046Z,50.25
2018-04-10T20:03:33.681Z,50.53
2018-04-10T20:06:01.930Z,50.26
2018-04-10T20:08:29.629Z,50.44
2018-04-10T20:10:57.297Z,50.52
2018-04-10T20:13:24.922Z,51.02
2018-04-10T20:15:52.538Z,51.75
2018-04-10T20:18:20.152Z,51.89
2018-04-10T20:20:47.757Z,51.82
2018-04-10T20:23:15.351Z,51.81
2018-04-10T20:25:42.927Z,52.11
2018-04-10T20:28:10.505Z,52.29
2018-04-10T20:30:38.091Z,52.29
2018-04-10T20:33:05.673Z,52.58
2018-04-10T20:35:33.306Z,52.47
2018-04-10T20:38:00.914Z,52.32
2018-04-10T20:40:28.584Z,51.88
2018-04-10T20:42:56.157Z,52.36
2018-04-10T20:45:23.962Z,53.26
2018-04-10T20:47:51.574Z,52.40
2018-04-10T20:50:19.194Z,52.88
2018-04-10T20:52:46.879Z,52.46
2018-04-10T20:55:14.566Z,54.60
2018-04-10T20:57:42.225Z,59.19
2018-04-10T21:00:09.910Z,60.80
2018-04-10T21:02:37.603Z,59.51
2018-04-10T21:05:05.266Z,58.61
2018-04-10T21:07:32.929Z,55.97
2018-04-10T21:10:00.514Z,55.99
2018-04-10T21:12:28.131Z,56.46
2018-04-10T21:14:55.713Z,55.83
2018-04-10T21:17:23.333Z,58.47
2018-04-10T21:19:50.908Z,57.65
2018-04-10T21:22:18.490Z,54.84
2018-04-10T21:24:46.068Z,53.55
2018-04-10T21:27:13.720Z,53.71
2018-04-10T21:29:41.297Z,54.41
2018-04-10T21:32:08.944Z,54.13
2018-04-10T21:34:36.525Z,54.55
2018-04-10T21:37:04.105Z,53.60
2018-04-10T21:39:31.781Z,55.07
2018-04-10T21:41:59.367Z,54.12
2018-04-10T21:44:26.946Z,54.25
2018-04-10T21:46:55.333Z,53.55
2018-04-10T21:49:23.030Z,54.80
2018-04-10T21:51:50.606Z,55.21
2018-04-10T21:54:18.176Z,56.23
2018-04-10T21:56:45.877Z,56.22
2018-04-10T21:59:14.255Z,55.32
2018-04-10T22:01:41.872Z,55.46
2018-04-10T22:04:09.455Z,55.78
2018-04-10T22:06:37.056Z,55.71
2018-04-10T22:09:04.640Z,56.07
2018-04-10T22:11:32.214Z,56.63
2018-04-10T22:13:59.841Z,57.09
2018-04-10T22:16:27.425Z,57.21
2018-04-10T22:18:55.009Z,57.22
2018-04-10T22:21:22.588Z,57.36
2018-04-10T22:23:50.162Z,57.82
2018-04-10T22:26:17.736Z,58.11
2018-04-10T22:28:45.318Z,58.53
2018-04-10T22:31:12.901Z,58.98
2018-04-10T22:33:40.495Z,58.86
2018-04-10T22:36:08.100Z,59.26
2018-04-10T22:38:35.675Z,58.97
2018-04-10T22:41:03.312Z,59.08
2018-04-10T22:43:30.892Z,59.48
2018-04-10T22:45:58.467Z,59.67
2018-04-10T22:48:26.157Z,61.13
2018-04-10T22:50:53.737Z,62.56
2018-04-10T22:53:21.353Z,62.45
2018-04-10T22:55:48.938Z,61.79
2018-04-10T22:58:16.517Z,62.16
2018-04-10T23:00:45.688Z,62.40
2018-04-10T23:03:13.269Z,62.94
2018-04-10T23:05:40.934Z,62.88
2018-04-10T23:08:08.513Z,63.49
2018-04-10T23:10:36.099Z,62.30
2018-04-10T23:13:03.677Z,62.27
2018-04-10T23:15:33.930Z,63.62
2018-04-10T23:18:02.289Z,62.66
2018-04-10T23:20:29.865Z,62.16
2018-04-10T23:22:57.449Z,61.45
2018-04-10T23:25:25.029Z,62.23
2018-04-10T23:27:52.615Z,63.19
2018-04-10T23:30:20.308Z,62.43
2018-04-10T23:32:47.918Z,63.08
2018-04-10T23:35:15.499Z,62.33
2018-04-10T23:37:43.170Z,62.08
2018-04-10T23:40:10.746Z,63.02
2018-04-10T23:42:38.329Z,62.95
2018-04-10T23:45:05.909Z,62.70
2018-04-10T23:47:33.482Z,62.72
2018-04-10T23:50:01.071Z,62.49
2018-04-10T23:52:28.652Z,61.72
2018-04-10T23:54:56.259Z,63.67
2018-04-10T23:57:23.829Z,62.77
2018-04-10T23:59:51.409Z,63.10
